Clinton, Maryland
Current Conditions -  °F | °C
As of 6:58 AM on Sunday 23 Nov 2014 (Local Time) from KADW Reporting Station
Clear Clear  
Wind Chill: 33°   Ceiling: Unl
Heat Index: 38°   Visibility: 10mi
Dew Point: 19°   Wind: 7mph
Humidity: 46%   Direction: 210°SSW
Pressure: 30.23"   Gusts: NA
Location:  38.76°N, 76.91°W
Report Text: KADW 231158Z AUTO 21006KT 10SM CLR 03/M07 A3023 RMK AO2 SLP246 T00331073 10066 20032 53012 $
Loading
Personal Weather Stations






























Interactive Weather Map New forecast layout! Learn more

10-Day Weather Forecast

Advertisements
Track Severe Weather on mobile